Time;durP1;ratioP1;P1;durP2;ratioP2;P2;SDS_P1;SDS_P2;PMS_P1;PMS_P2;Temp;Humidity;BMP_temperature;BMP_pressure;BME280_temperature;BME280_humidity;BME280_pressure;Samples;Min_cycle;Max_cycle;Signal;HPM_P1;HPM_P2
2024/03/12 00:04:18;;;;;;;22.70;14.40;;;;;;;6.01;93.11;99209.68;217038;1260;139971;-74
2024/03/12 00:09:22;;;;;;;23.80;13.80;;;;;;;6.00;93.41;99206.80;216952;1263;139717;-74
2024/03/12 00:14:28;;;;;;;25.80;14.00;;;;;;;5.99;93.72;99211.36;216981;1260;140705;-76
2024/03/12 00:19:33;;;;;;;16.50;11.60;;;;;;;5.98;93.55;99211.42;216782;1259;140865;-76
2024/03/12 00:24:40;;;;;;;25.40;16.00;;;;;;;5.95;93.77;99212.45;217565;1263;140285;-75
2024/03/12 00:29:45;;;;;;;23.60;14.60;;;;;;;5.93;93.37;99209.74;217012;1259;141770;-75
2024/03/12 00:34:50;;;;;;;23.60;12.80;;;;;;;5.95;94.00;99203.71;217000;1263;140556;-76
2024/03/12 00:39:55;;;;;;;20.90;15.40;;;;;;;5.96;94.29;99198.73;217938;1260;140931;-76
2024/03/12 00:45:01;;;;;;;20.00;14.50;;;;;;;6.00;94.16;99199.63;216924;1259;141201;-77
2024/03/12 00:50:11;;;;;;;20.20;12.70;;;;;;;6.02;94.15;99201.57;217148;1261;140989;-76
2024/03/12 00:55:18;;;;;;;26.60;13.70;;;;;;;6.01;93.85;99198.04;216854;1260;139897;-76
2024/03/12 01:00:28;;;;;;;23.10;15.30;;;;;;;6.03;94.47;99195.13;218584;1263;139947;-76
2024/03/12 01:05:38;;;;;;;26.90;15.20;;;;;;;6.06;94.47;99193.32;219874;1259;142293;-77
2024/03/12 01:10:45;;;;;;;27.90;17.40;;;;;;;6.12;94.41;99189.98;219069;1259;139567;-76
2024/03/12 01:15:53;;;;;;;21.50;13.90;;;;;;;6.18;94.26;99186.83;217034;1262;139646;-79
2024/03/12 01:20:59;;;;;;;29.90;18.10;;;;;;;6.22;94.26;99188.34;216979;1263;140813;-78
2024/03/12 01:26:06;;;;;;;21.30;14.70;;;;;;;6.23;94.09;99191.55;217707;1260;154613;-78
2024/03/12 01:31:10;;;;;;;31.70;17.90;;;;;;;6.24;94.00;99195.19;217554;1263;140575;-77
2024/03/12 01:36:20;;;;;;;27.60;18.10;;;;;;;6.28;94.35;99193.65;216908;1263;140733;-77
2024/03/12 01:41:26;;;;;;;32.30;18.20;;;;;;;6.34;93.97;99194.48;216985;1263;140018;-77
2024/03/12 01:46:33;;;;;;;28.20;17.00;;;;;;;6.39;94.21;99196.48;216963;1263;141358;-76
2024/03/12 01:51:37;;;;;;;27.10;18.00;;;;;;;6.41;94.03;99193.67;216797;1261;140467;-75
2024/03/12 01:56:41;;;;;;;23.10;16.80;;;;;;;6.41;93.75;99190.00;217907;1260;140668;-75
2024/03/12 02:02:00;;;;;;;30.60;19.40;;;;;;;6.35;93.71;99185.44;217068;1263;248537;-75
2024/03/12 02:07:05;;;;;;;28.40;17.80;;;;;;;6.35;94.06;99184.46;217589;1263;140645;-75
2024/03/12 02:12:09;;;;;;;31.70;17.80;;;;;;;6.39;94.15;99184.24;217077;1260;142943;-75
2024/03/12 02:17:14;;;;;;;27.70;18.70;;;;;;;6.40;94.20;99181.10;216823;1263;140163;-76
2024/03/12 02:22:19;;;;;;;34.20;18.10;;;;;;;6.40;93.97;99183.64;216883;1263;140142;-76
2024/03/12 02:27:23;;;;;;;26.40;16.80;;;;;;;6.36;93.79;99187.46;216980;1263;140700;-75
2024/03/12 02:32:27;;;;;;;28.60;20.10;;;;;;;6.35;94.03;99184.77;217064;1263;140930;-76
2024/03/12 02:37:32;;;;;;;33.00;20.20;;;;;;;6.40;94.45;99186.08;216910;1264;141056;-76
2024/03/12 02:42:43;;;;;;;30.90;20.30;;;;;;;6.45;93.98;99181.36;216958;1259;140635;-77
2024/03/12 02:47:49;;;;;;;27.80;18.50;;;;;;;6.48;94.23;99180.71;217069;1260;140901;-76
2024/03/12 02:52:55;;;;;;;35.40;21.60;;;;;;;6.50;94.03;99179.76;217324;1263;140558;-75
2024/03/12 02:58:03;;;;;;;36.60;20.90;;;;;;;6.49;94.08;99182.23;219876;1260;140284;-76
2024/03/12 03:03:08;;;;;;;33.50;20.70;;;;;;;6.48;93.97;99179.08;219234;1260;140684;-76
2024/03/12 03:08:12;;;;;;;28.50;16.60;;;;;;;6.45;93.69;99180.00;217143;1263;140799;-76
2024/03/12 03:13:17;;;;;;;28.90;16.10;;;;;;;6.38;93.48;99181.62;216955;1260;140778;-76
2024/03/12 03:18:22;;;;;;;23.70;17.70;;;;;;;6.34;93.67;99181.34;217080;1260;140588;-76
2024/03/12 03:23:27;;;;;;;25.40;16.80;;;;;;;6.35;93.91;99184.54;217052;1263;140313;-77
2024/03/12 03:28:30;;;;;;;25.40;18.50;;;;;;;6.37;94.05;99183.17;217387;1261;141204;-77
2024/03/12 03:33:34;;;;;;;39.00;19.90;;;;;;;6.39;93.79;99181.65;218007;1260;140282;-75
2024/03/12 03:38:44;;;;;;;52.30;24.30;;;;;;;6.39;93.82;99186.41;216999;1263;141729;-75
2024/03/12 03:43:48;;;;;;;37.30;21.40;;;;;;;6.41;94.32;99182.92;216890;1263;139927;-75
2024/03/12 03:48:55;;;;;;;33.50;20.50;;;;;;;6.43;93.92;99180.48;216979;1260;141400;-76
2024/03/12 03:54:01;;;;;;;37.10;22.40;;;;;;;6.45;94.12;99184.86;217207;1260;140027;-75
2024/03/12 03:59:05;;;;;;;35.70;20.50;;;;;;;6.47;93.99;99181.63;217423;1261;139925;-75
2024/03/12 04:04:12;;;;;;;31.80;20.90;;;;;;;6.46;93.85;99181.35;217964;1259;141359;-77
2024/03/12 04:09:17;;;;;;;30.90;21.20;;;;;;;6.45;93.76;99180.63;217093;1261;142321;-74
2024/03/12 04:14:25;;;;;;;32.70;19.10;;;;;;;6.45;93.69;99183.18;217118;1260;140074;-73
2024/03/12 04:19:32;;;;;;;34.20;20.20;;;;;;;6.45;93.97;99178.46;217237;1261;141155;-75
2024/03/12 04:24:37;;;;;;;36.40;20.40;;;;;;;6.42;94.11;99184.86;217449;1259;140559;-74
2024/03/12 04:29:42;;;;;;;39.30;20.90;;;;;;;6.38;94.08;99185.54;216961;1261;141171;-73
2024/03/12 04:34:46;;;;;;;32.60;19.00;;;;;;;6.35;93.77;99183.64;217019;1260;139921;-74
2024/03/12 04:39:51;;;;;;;45.50;24.00;;;;;;;6.31;94.16;99184.29;217109;1260;140179;-73
2024/03/12 04:44:57;;;;;;;31.20;20.70;;;;;;;6.28;93.78;99185.45;217005;1260;141606;-74
2024/03/12 04:50:02;;;;;;;35.60;20.00;;;;;;;6.27;93.95;99186.00;216930;1260;140206;-74
2024/03/12 04:55:07;;;;;;;36.80;21.50;;;;;;;6.25;94.09;99194.20;217994;1260;140097;-74
2024/03/12 05:00:18;;;;;;;39.40;22.20;;;;;;;6.24;93.89;99196.83;217007;1263;140621;-73
2024/03/12 05:05:23;;;;;;;41.30;22.40;;;;;;;6.22;94.11;99199.65;217984;1260;139920;-74
2024/03/12 05:10:27;;;;;;;43.90;22.50;;;;;;;6.19;94.05;99205.14;216794;1263;140614;-73
2024/03/12 05:15:31;;;;;;;43.60;21.80;;;;;;;6.19;94.25;99211.20;216689;1260;140955;-75
2024/03/12 05:20:36;;;;;;;39.90;20.20;;;;;;;6.20;94.48;99219.98;217071;1261;139810;-73
2024/03/12 05:25:41;;;;;;;37.80;20.40;;;;;;;6.19;94.21;99219.63;216904;1260;139711;-74
2024/03/12 05:30:45;;;;;;;37.70;19.90;;;;;;;6.18;94.39;99226.85;217161;1263;313528;-74
2024/03/12 05:35:52;;;;;;;35.60;20.20;;;;;;;6.16;94.30;99230.40;216708;1261;140071;-74
2024/03/12 05:51:37;;;;;;;31.50;18.80;;;;;;;6.16;94.47;99242.45;216765;1259;140186;-74
2024/03/12 05:56:42;;;;;;;42.50;22.00;;;;;;;6.18;94.70;99252.62;216947;1260;139905;-74
2024/03/12 06:01:47;;;;;;;45.10;20.80;;;;;;;6.20;94.73;99254.59;216770;1263;140084;-74
2024/03/12 06:06:53;;;;;;;41.00;22.40;;;;;;;6.21;94.57;99253.16;216830;1259;139791;-75
2024/03/12 06:11:58;;;;;;;41.10;20.70;;;;;;;6.18;94.28;99259.30;216981;1259;140167;-73
2024/03/12 06:17:03;;;;;;;34.20;20.50;;;;;;;6.19;94.51;99260.75;216871;1263;139844;-74
2024/03/12 06:22:08;;;;;;;36.20;20.80;;;;;;;6.19;94.73;99260.55;217220;1259;139851;-76
2024/03/12 06:27:14;;;;;;;56.00;24.20;;;;;;;6.20;94.37;99259.93;217490;1259;139885;-77
2024/03/12 06:32:21;;;;;;;47.10;22.60;;;;;;;6.22;94.59;99263.86;217352;1262;140065;-74
2024/03/12 06:37:27;;;;;;;46.40;20.60;;;;;;;6.24;94.45;99266.05;218132;1259;140810;-74
2024/03/12 06:42:31;;;;;;;47.40;23.90;;;;;;;6.27;94.80;99270.38;217559;1259;141034;-77
2024/03/12 06:47:40;;;;;;;38.20;20.90;;;;;;;6.28;94.35;99271.42;217064;1263;140626;-75
2024/03/12 06:52:48;;;;;;;36.70;20.50;;;;;;;6.29;94.32;99269.46;216946;1260;140872;-76
2024/03/12 06:58:04;;;;;;;43.60;21.20;;;;;;;6.33;94.86;99270.36;216904;1259;142114;-79
2024/03/12 07:03:09;;;;;;;45.60;21.90;;;;;;;6.37;94.79;99269.42;217024;1261;141557;-78
2024/03/12 07:08:16;;;;;;;51.70;23.70;;;;;;;6.42;94.62;99268.67;217048;1263;140423;-78
2024/03/12 07:13:22;;;;;;;37.90;18.90;;;;;;;6.49;94.86;99275.00;216840;1260;139967;-78
2024/03/12 07:18:26;;;;;;;36.70;16.90;;;;;;;6.56;94.81;99273.63;217075;1260;140039;-77
2024/03/12 07:23:31;;;;;;;35.90;18.70;;;;;;;6.63;94.51;99274.42;216989;1259;141788;-77
2024/03/12 07:28:38;;;;;;;42.90;19.30;;;;;;;6.66;94.46;99276.55;216972;1259;140796;-76
2024/03/12 07:33:43;;;;;;;52.10;23.40;;;;;;;6.72;94.62;99277.20;217009;1258;140897;-76
2024/03/12 07:38:48;;;;;;;51.30;24.60;;;;;;;6.78;94.44;99282.05;217017;1260;140256;-76
2024/03/12 07:43:52;;;;;;;45.50;21.60;;;;;;;6.84;94.61;99284.16;217112;1263;142737;-76
2024/03/12 07:48:58;;;;;;;44.20;22.60;;;;;;;6.95;94.62;99283.30;216950;1259;141127;-76
2024/03/12 07:54:06;;;;;;;42.40;20.70;;;;;;;7.05;94.46;99283.78;217011;1259;140186;-78
2024/03/12 07:59:11;;;;;;;42.40;20.50;;;;;;;7.11;94.33;99289.41;216856;1263;140489;-75
2024/03/12 08:04:16;;;;;;;46.10;20.20;;;;;;;7.15;94.34;99287.66;217269;1259;140541;-74
2024/03/12 08:09:21;;;;;;;38.80;20.80;;;;;;;7.18;93.90;99289.98;217347;1259;141141;-73
2024/03/12 08:14:25;;;;;;;48.30;21.30;;;;;;;7.20;93.78;99288.29;217255;1259;139959;-73
2024/03/12 08:19:29;;;;;;;39.50;19.80;;;;;;;7.26;93.72;99293.90;217583;1259;139776;-74
2024/03/12 08:24:34;;;;;;;43.80;22.30;;;;;;;7.34;94.06;99290.73;218462;1259;140078;-74
2024/03/12 08:29:39;;;;;;;39.90;18.70;;;;;;;7.41;93.72;99295.27;217147;1260;140254;-74
2024/03/12 08:34:44;;;;;;;47.60;22.00;;;;;;;7.44;93.64;99297.52;217004;1260;140151;-76
2024/03/12 08:39:49;;;;;;;42.60;21.00;;;;;;;7.48;93.42;99301.99;217081;1259;140488;-75
2024/03/12 08:44:54;;;;;;;44.20;21.20;;;;;;;7.48;93.12;99305.17;217210;1259;139972;-76
2024/03/12 08:49:59;;;;;;;34.20;19.60;;;;;;;7.46;93.08;99310.09;217404;1259;140642;-79
2024/03/12 08:55:04;;;;;;;38.10;21.50;;;;;;;7.44;93.02;99314.00;216717;1259;141040;-80
2024/03/12 09:00:12;;;;;;;35.10;21.20;;;;;;;7.40;92.78;99318.90;217034;1264;140972;-80
2024/03/12 09:05:17;;;;;;;33.70;19.10;;;;;;;7.38;92.92;99318.08;217112;1259;140337;-80
2024/03/12 09:10:21;;;;;;;42.90;21.80;;;;;;;7.36;92.71;99324.95;217244;1261;140405;-80
2024/03/12 09:15:25;;;;;;;32.60;18.10;;;;;;;7.35;92.88;99325.54;216979;1262;141495;-78
2024/03/12 09:20:29;;;;;;;40.00;22.10;;;;;;;7.34;92.89;99328.00;217127;1259;140071;-76
2024/03/12 09:25:33;;;;;;;37.80;21.30;;;;;;;7.32;93.00;99328.23;216974;1260;140640;-75
2024/03/12 09:30:38;;;;;;;41.80;22.70;;;;;;;7.32;93.05;99327.70;217201;1259;141861;-75
2024/03/12 09:35:41;;;;;;;45.30;21.60;;;;;;;7.29;92.42;99328.04;217275;1263;140202;-77
2024/03/12 09:40:47;;;;;;;36.10;20.80;;;;;;;7.28;92.94;99329.64;217224;1259;140164;-76
2024/03/12 09:45:54;;;;;;;40.50;20.90;;;;;;;7.26;92.59;99332.89;217069;1259;140536;-75
2024/03/12 09:50:59;;;;;;;40.40;23.00;;;;;;;7.24;92.69;99338.50;217222;1259;140618;-75
2024/03/12 09:56:06;;;;;;;41.10;18.40;;;;;;;7.19;92.53;99341.65;217660;1259;142238;-73
2024/03/12 10:01:12;;;;;;;46.70;22.40;;;;;;;7.16;92.70;99351.89;217227;1259;139885;-75
2024/03/12 10:06:17;;;;;;;52.30;23.70;;;;;;;7.13;92.94;99353.86;218579;1259;140405;-75
2024/03/12 10:11:22;;;;;;;41.20;22.70;;;;;;;7.09;92.86;99351.30;217473;1259;140528;-74
2024/03/12 10:16:32;;;;;;;53.10;26.70;;;;;;;7.11;92.94;99352.86;217441;1263;139605;-73
2024/03/12 10:21:37;;;;;;;50.30;24.70;;;;;;;7.17;93.32;99355.53;217692;1259;139991;-76
2024/03/12 10:26:45;;;;;;;51.70;24.30;;;;;;;7.24;93.56;99356.89;217142;1259;141843;-74
2024/03/12 10:31:50;;;;;;;49.00;24.20;;;;;;;7.28;93.31;99356.55;216843;1260;141642;-75
2024/03/12 10:36:54;;;;;;;55.40;25.30;;;;;;;7.32;93.46;99356.60;216871;1261;234098;-74
2024/03/12 10:41:59;;;;;;;58.00;27.30;;;;;;;7.34;93.31;99357.93;218071;1259;140670;-75
2024/03/12 10:47:04;;;;;;;52.90;25.50;;;;;;;7.36;93.69;99362.42;218763;1259;141804;-75
2024/03/12 10:52:10;;;;;;;50.50;26.20;;;;;;;7.38;93.49;99360.41;217411;1259;140355;-73
2024/03/12 10:57:14;;;;;;;47.20;23.40;;;;;;;7.41;93.51;99358.25;216928;1263;139395;-74
2024/03/12 11:02:19;;;;;;;58.30;25.50;;;;;;;7.47;93.59;99358.34;216999;1261;140337;-74
2024/03/12 11:07:26;;;;;;;48.20;21.70;;;;;;;7.53;93.69;99356.33;216798;1259;140786;-73
2024/03/12 11:12:31;;;;;;;46.80;22.40;;;;;;;7.53;93.52;99360.61;216999;1259;140973;-75
2024/03/12 11:17:40;;;;;;;56.20;26.10;;;;;;;7.55;93.63;99354.59;216993;1259;139836;-74
2024/03/12 11:22:45;;;;;;;50.80;23.90;;;;;;;7.62;94.07;99358.70;216842;1259;140116;-77
2024/03/12 11:27:51;;;;;;;42.60;23.40;;;;;;;7.66;93.66;99356.61;217107;1263;139955;-73
2024/03/12 11:32:57;;;;;;;32.40;16.30;;;;;;;7.68;93.39;99353.95;216925;1259;139889;-74
2024/03/12 11:38:05;;;;;;;28.50;15.10;;;;;;;7.71;93.45;99350.91;217853;1258;140666;-75
2024/03/12 11:43:37;;;;;;;24.90;14.70;;;;;;;7.79;93.46;99353.09;217892;1259;139862;-73
2024/03/12 11:48:42;;;;;;;27.10;14.20;;;;;;;7.90;93.97;99353.00;216959;1263;140694;-75
2024/03/12 11:53:47;;;;;;;18.90;11.20;;;;;;;7.96;93.41;99355.02;217666;1259;141223;-73
2024/03/12 11:58:54;;;;;;;26.80;13.80;;;;;;;7.94;93.18;99354.59;217044;1263;140482;-75
2024/03/12 12:04:10;;;;;;;21.00;11.40;;;;;;;7.90;93.18;99354.87;216917;1263;139611;-74
2024/03/12 12:09:15;;;;;;;20.80;11.60;;;;;;;7.86;93.10;99354.90;218778;1259;141118;-74
2024/03/12 12:14:20;;;;;;;23.10;14.10;;;;;;;7.82;92.98;99356.13;217024;1260;140052;-76
2024/03/12 12:19:25;;;;;;;24.80;13.20;;;;;;;7.82;92.94;99355.44;216898;1261;140058;-74
2024/03/12 12:24:40;;;;;;;27.00;14.30;;;;;;;7.75;93.04;99357.92;218566;1259;140093;-75
2024/03/12 12:29:44;;;;;;;22.80;13.70;;;;;;;7.75;93.30;99358.34;217174;1262;141921;-76
2024/03/12 12:34:49;;;;;;;22.50;12.10;;;;;;;7.75;93.34;99360.98;217143;1259;139731;-74
2024/03/12 12:39:54;;;;;;;21.30;12.50;;;;;;;7.75;93.08;99360.47;217175;1260;139993;-74
2024/03/12 12:45:16;;;;;;;17.30;11.10;;;;;;;7.74;93.09;99360.67;217268;1259;139978;-75
2024/03/12 12:50:31;;;;;;;21.10;12.50;;;;;;;7.74;93.27;99365.36;217182;1260;141184;-75
2024/03/12 12:55:39;;;;;;;20.10;12.60;;;;;;;7.75;93.18;99371.60;217620;1259;140380;-75
2024/03/12 13:00:45;;;;;;;18.20;11.70;;;;;;;7.79;93.63;99372.13;216992;1262;140411;-75
2024/03/12 13:05:50;;;;;;;22.80;12.10;;;;;;;7.80;93.54;99369.26;217921;1260;139635;-74
2024/03/12 13:11:04;;;;;;;16.50;10.70;;;;;;;7.81;93.53;99367.37;217091;1264;139799;-75
2024/03/12 13:16:18;;;;;;;14.20;10.40;;;;;;;7.83;93.70;99368.64;217170;1259;140547;-75
2024/03/12 13:21:25;;;;;;;14.60;10.30;;;;;;;7.84;93.76;99371.37;217064;1261;140585;-75
2024/03/12 13:26:31;;;;;;;15.90;9.40;;;;;;;7.84;93.87;99374.65;217112;1259;140071;-75
2024/03/12 13:31:36;;;;;;;17.30;10.10;;;;;;;7.81;93.64;99376.02;217253;1263;141084;-75
2024/03/12 13:36:43;;;;;;;19.60;12.00;;;;;;;7.82;94.04;99377.77;217682;1263;139763;-74
2024/03/12 13:41:49;;;;;;;14.90;9.90;;;;;;;7.84;93.95;99377.09;217230;1259;140068;-74
2024/03/12 13:46:54;;;;;;;16.10;9.90;;;;;;;7.86;94.15;99382.37;217577;1263;140061;-74
2024/03/12 13:51:58;;;;;;;17.80;10.60;;;;;;;7.82;93.90;99384.05;217147;1259;139878;-76
2024/03/12 13:57:03;;;;;;;19.20;10.50;;;;;;;7.76;93.60;99384.54;217129;1259;140600;-76
2024/03/12 14:02:07;;;;;;;14.50;10.50;;;;;;;7.73;93.72;99387.05;217303;1263;140922;-74
2024/03/12 14:07:14;;;;;;;22.60;13.30;;;;;;;7.75;94.04;99393.69;217090;1259;140092;-77
2024/03/12 14:12:20;;;;;;;19.50;12.00;;;;;;;7.76;93.98;99394.73;217675;1260;140040;-79
2024/03/12 14:17:34;;;;;;;20.00;12.80;;;;;;;7.77;94.27;99395.91;217197;1263;140580;-80
2024/03/12 14:22:48;;;;;;;21.60;13.10;;;;;;;7.77;93.92;99395.45;217620;1262;140397;-78
2024/03/12 14:27:58;;;;;;;18.90;13.00;;;;;;;7.78;94.08;99397.73;217345;1262;140207;-83
2024/03/12 14:33:03;;;;;;;28.30;12.30;;;;;;;7.77;94.23;99399.09;217796;1259;141977;-77
2024/03/12 14:38:11;;;;;;;16.10;12.10;;;;;;;7.73;94.07;99404.29;217632;1261;140427;-80
2024/03/12 14:43:21;;;;;;;20.00;14.40;;;;;;;7.68;94.27;99405.85;217542;1259;152873;-80
2024/03/12 14:48:28;;;;;;;19.60;13.20;;;;;;;7.60;93.95;99408.67;217454;1260;140847;-76
2024/03/12 14:53:39;;;;;;;23.80;14.80;;;;;;;7.53;93.88;99411.13;217467;1259;140767;-78
2024/03/12 14:58:47;;;;;;;30.10;16.40;;;;;;;7.49;94.17;99409.14;217359;1263;140068;-79
2024/03/12 15:04:01;;;;;;;23.50;14.10;;;;;;;7.47;94.23;99413.77;218022;1262;141724;-80
2024/03/12 15:09:06;;;;;;;25.00;15.60;;;;;;;7.44;94.29;99420.52;217170;1264;139985;-80
2024/03/12 15:14:14;;;;;;;30.30;17.10;;;;;;;7.40;94.41;99427.17;217417;1264;245324;-80
2024/03/12 15:19:19;;;;;;;26.10;15.60;;;;;;;7.34;94.24;99429.73;217546;1263;140609;-80
2024/03/12 15:24:24;;;;;;;29.50;15.80;;;;;;;7.33;94.77;99436.60;217560;1264;139878;-82
2024/03/12 15:29:32;;;;;;;29.10;19.30;;;;;;;7.31;94.37;99441.61;217651;1262;140246;-79
2024/03/12 15:34:42;;;;;;;32.60;17.30;;;;;;;7.28;94.37;99445.95;217353;1264;140564;-80
2024/03/12 15:39:48;;;;;;;37.70;19.70;;;;;;;7.25;94.40;99451.42;217272;1262;139680;-79
2024/03/12 15:44:53;;;;;;;41.20;20.10;;;;;;;7.23;94.59;99456.49;217111;1262;141005;-79
2024/03/12 15:49:57;;;;;;;38.40;21.20;;;;;;;7.19;94.68;99459.66;217394;1259;140129;-77
2024/03/12 15:55:01;;;;;;;35.50;21.60;;;;;;;7.17;95.17;99463.41;217710;1259;141240;-78
2024/03/12 16:00:08;;;;;;;38.90;22.30;;;;;;;7.11;94.82;99462.80;217364;1259;140814;-74
2024/03/12 16:05:12;;;;;;;34.90;21.30;;;;;;;7.07;94.82;99463.90;217132;1262;141559;-76
2024/03/12 16:10:16;;;;;;;38.90;20.80;;;;;;;7.03;95.01;99464.75;219146;1262;140135;-74
2024/03/12 16:15:22;;;;;;;42.70;20.30;;;;;;;7.01;94.70;99463.73;218388;1260;140645;-75
2024/03/12 16:20:26;;;;;;;41.00;23.20;;;;;;;6.96;95.11;99466.66;218121;1259;140553;-74
2024/03/12 16:25:30;;;;;;;40.40;22.30;;;;;;;6.91;94.64;99468.63;217300;1264;140153;-76
2024/03/12 16:30:34;;;;;;;39.60;22.90;;;;;;;6.87;95.04;99474.60;216906;1261;140070;-74
2024/03/12 16:35:40;;;;;;;37.70;21.30;;;;;;;6.83;94.93;99477.61;217150;1262;140213;-74
2024/03/12 16:40:45;;;;;;;35.90;23.20;;;;;;;6.79;95.26;99483.30;217155;1261;139648;-75
2024/03/12 16:45:49;;;;;;;36.40;22.30;;;;;;;6.74;95.31;99483.23;216942;1261;140811;-74
2024/03/12 16:50:53;;;;;;;38.20;22.60;;;;;;;6.70;95.61;99487.02;217145;1260;142287;-73
2024/03/12 16:56:01;;;;;;;33.70;21.30;;;;;;;6.67;95.27;99487.69;217423;1261;139722;-73
2024/03/12 17:01:08;;;;;;;42.30;25.70;;;;;;;6.63;95.45;99485.96;217192;1264;139682;-72
2024/03/12 17:06:15;;;;;;;32.30;20.90;;;;;;;6.62;96.29;99491.68;218083;1264;139164;-75
2024/03/12 17:11:20;;;;;;;41.30;23.40;;;;;;;6.59;95.86;99492.80;216954;1264;140455;-77
2024/03/12 17:16:26;;;;;;;34.70;22.30;;;;;;;6.56;95.86;99493.87;217151;1263;139731;-75
2024/03/12 17:21:31;;;;;;;31.10;20.80;;;;;;;6.57;95.76;99500.35;217499;1265;140678;-73
2024/03/12 17:26:37;;;;;;;36.10;22.40;;;;;;;6.56;95.77;99507.57;217146;1259;140888;-72
2024/03/12 17:31:42;;;;;;;36.00;23.30;;;;;;;6.53;96.34;99508.96;217074;1259;310339;-72
2024/03/12 17:36:47;;;;;;;37.20;22.60;;;;;;;6.50;96.20;99512.23;216985;1262;140809;-75
2024/03/12 17:41:52;;;;;;;36.70;21.80;;;;;;;6.50;96.39;99514.65;217251;1262;140293;-72
2024/03/12 17:47:08;;;;;;;40.20;23.90;;;;;;;6.47;96.52;99514.83;217645;1263;139584;-73
2024/03/12 17:52:14;;;;;;;28.80;20.20;;;;;;;6.45;96.24;99513.16;217375;1262;141480;-74
2024/03/12 17:57:20;;;;;;;35.40;20.50;;;;;;;6.42;96.25;99519.23;217335;1263;139646;-74
2024/03/12 18:02:23;;;;;;;32.20;19.80;;;;;;;6.38;96.15;99524.19;218991;1260;140545;-73
2024/03/12 18:07:36;;;;;;;32.80;22.20;;;;;;;6.36;96.42;99526.56;217183;1259;211008;-72
2024/03/12 18:12:44;;;;;;;31.10;20.20;;;;;;;6.35;96.57;99529.54;217998;1263;140086;-75
2024/03/12 18:17:48;;;;;;;36.30;20.50;;;;;;;6.33;96.86;99532.92;217452;1263;141723;-73
2024/03/12 18:22:52;;;;;;;34.50;21.40;;;;;;;6.32;96.57;99541.52;218633;1261;141163;-77
2024/03/12 18:27:57;;;;;;;37.30;22.10;;;;;;;6.30;96.44;99539.79;217061;1260;140110;-74
2024/03/12 18:33:03;;;;;;;37.70;21.80;;;;;;;6.28;96.62;99542.52;217296;1262;140505;-77
2024/03/12 18:38:08;;;;;;;40.90;24.00;;;;;;;6.25;96.69;99545.14;218339;1262;140437;-74
2024/03/12 18:43:12;;;;;;;46.30;25.30;;;;;;;6.24;96.49;99552.75;217069;1262;140144;-77
2024/03/12 18:48:16;;;;;;;42.40;26.10;;;;;;;6.19;96.42;99555.09;216952;1265;140243;-74
2024/03/12 18:53:21;;;;;;;39.10;23.80;;;;;;;6.16;96.63;99557.80;217265;1260;139856;-74
2024/03/12 18:58:26;;;;;;;47.90;26.30;;;;;;;6.14;96.70;99558.36;217051;1265;142612;-74
2024/03/12 19:03:54;;;;;;;46.80;25.10;;;;;;;6.12;96.72;99561.64;217166;1261;139729;-74
2024/03/12 19:08:59;;;;;;;49.00;25.90;;;;;;;6.12;97.00;99568.25;217011;1265;139649;-77
2024/03/12 19:14:03;;;;;;;49.40;26.20;;;;;;;6.08;96.62;99565.88;217204;1265;139647;-75
2024/03/12 19:19:10;;;;;;;44.00;26.80;;;;;;;6.05;97.02;99566.08;217697;1262;139435;-76
2024/03/12 19:24:15;;;;;;;47.80;28.30;;;;;;;6.05;96.84;99572.30;216955;1259;140700;-75
2024/03/12 19:29:22;;;;;;;50.30;27.40;;;;;;;6.02;96.80;99573.45;217252;1263;139868;-74
2024/03/12 19:34:27;;;;;;;55.20;29.10;;;;;;;6.01;96.96;99572.88;217082;1264;140221;-72
2024/03/12 19:39:33;;;;;;;46.70;27.00;;;;;;;6.02;97.07;99572.60;217201;1262;139717;-73
2024/03/12 19:44:37;;;;;;;52.10;29.80;;;;;;;6.02;97.15;99575.85;217274;1260;140954;-74
2024/03/12 19:49:45;;;;;;;57.70;31.70;;;;;;;6.05;97.55;99581.06;217153;1262;139982;-75
2024/03/12 19:54:50;;;;;;;49.50;28.20;;;;;;;6.06;97.33;99582.61;217386;1263;140191;-74
2024/03/12 19:59:56;;;;;;;53.10;30.00;;;;;;;6.04;97.79;99582.13;217095;1263;139836;-75
2024/03/12 20:05:21;;;;;;;44.80;26.80;;;;;;;6.04;97.44;99586.80;217776;1259;139349;-77
2024/03/12 20:10:32;;;;;;;51.50;25.50;;;;;;;6.03;97.59;99590.19;217944;1263;141262;-75
2024/03/12 20:15:43;;;;;;;54.10;28.70;;;;;;;6.02;97.20;99591.98;217143;1263;139677;-75
2024/03/12 20:20:50;;;;;;;47.30;29.60;;;;;;;6.02;97.43;99591.53;217788;1259;139958;-74
2024/03/12 20:26:01;;;;;;;49.50;28.50;;;;;;;6.03;97.45;99595.12;217108;1263;140617;-74
2024/03/12 20:31:09;;;;;;;48.60;26.20;;;;;;;6.06;97.43;99596.33;216946;1261;140267;-75
2024/03/12 20:36:17;;;;;;;48.00;27.30;;;;;;;6.07;97.10;99598.52;217158;1261;141428;-75
2024/03/12 20:41:20;;;;;;;46.00;26.90;;;;;;;6.07;97.00;99602.52;217427;1260;139755;-75
2024/03/12 20:46:30;;;;;;;50.10;27.30;;;;;;;6.03;97.28;99603.45;217159;1264;141148;-77
2024/03/12 20:51:52;;;;;;;44.50;26.20;;;;;;;6.01;97.36;99604.02;217924;1263;139779;-74
2024/03/12 20:57:08;;;;;;;46.20;26.90;;;;;;;6.02;97.17;99604.23;217519;1263;140605;-77
2024/03/12 21:02:18;;;;;;;41.60;23.90;;;;;;;6.01;97.22;99607.20;217110;1263;141086;-76
2024/03/12 21:07:23;;;;;;;39.90;25.30;;;;;;;5.99;97.25;99609.53;217654;1263;140025;-76
2024/03/12 21:12:31;;;;;;;50.50;26.40;;;;;;;5.95;97.42;99610.07;217294;1263;144378;-74
2024/03/12 21:17:36;;;;;;;53.00;28.80;;;;;;;5.92;97.24;99611.09;216977;1260;140334;-75
2024/03/12 21:22:41;;;;;;;53.30;30.20;;;;;;;5.92;97.69;99610.27;217209;1264;139679;-77
2024/03/12 21:27:53;;;;;;;49.40;28.80;;;;;;;5.91;97.37;99608.93;217253;1263;140575;-74
2024/03/12 21:32:57;;;;;;;56.90;29.90;;;;;;;5.91;97.48;99604.58;217510;1263;139731;-76
2024/03/12 21:38:02;;;;;;;55.30;33.20;;;;;;;5.91;97.45;99604.01;217277;1261;140632;-76
2024/03/12 21:43:08;;;;;;;56.10;30.50;;;;;;;5.90;97.72;99605.55;216972;1260;139987;-76
2024/03/12 21:48:26;;;;;;;53.60;32.30;;;;;;;5.87;97.35;99607.08;217040;1264;140035;-75
2024/03/12 21:53:36;;;;;;;55.30;31.00;;;;;;;5.88;97.61;99606.05;217073;1263;141352;-74
2024/03/12 21:58:46;;;;;;;56.00;31.40;;;;;;;5.90;97.56;99611.05;217125;1259;139657;-76
2024/03/12 22:03:52;;;;;;;45.60;26.50;;;;;;;5.90;97.49;99614.27;217309;1261;139454;-75
2024/03/12 22:08:57;;;;;;;47.00;29.40;;;;;;;5.88;97.37;99615.02;217719;1260;140994;-76
2024/03/12 22:14:01;;;;;;;50.00;28.10;;;;;;;5.85;97.47;99617.17;218974;1260;140622;-73
2024/03/12 22:19:08;;;;;;;52.80;30.00;;;;;;;5.84;97.77;99618.60;217191;1263;140667;-73
2024/03/12 22:24:22;;;;;;;49.00;30.20;;;;;;;5.81;97.35;99621.88;217591;1263;141042;-72
2024/03/12 22:29:27;;;;;;;54.90;27.60;;;;;;;5.78;97.71;99621.12;218190;1261;140342;-77
2024/03/12 22:34:33;;;;;;;53.00;30.00;;;;;;;5.77;97.41;99622.45;217151;1263;139961;-76
2024/03/12 22:39:37;;;;;;;53.80;27.90;;;;;;;5.75;97.76;99622.59;216925;1261;141454;-77
2024/03/12 22:44:42;;;;;;;75.30;32.50;;;;;;;5.75;97.54;99629.67;217158;1263;140887;-74
2024/03/12 22:49:46;;;;;;;55.40;29.10;;;;;;;5.73;97.61;99626.65;216978;1260;139911;-73
2024/03/12 22:54:56;;;;;;;51.90;28.50;;;;;;;5.72;97.66;99625.84;217065;1259;140551;-75
2024/03/12 23:00:10;;;;;;;56.80;27.70;;;;;;;5.71;97.82;99626.40;217217;1261;139948;-75
2024/03/12 23:05:16;;;;;;;53.60;26.70;;;;;;;5.73;97.91;99629.34;217390;1263;141458;-78
2024/03/12 23:10:21;;;;;;;50.60;26.60;;;;;;;5.76;98.22;99632.02;217053;1260;140253;-76
2024/03/12 23:15:26;;;;;;;56.10;26.90;;;;;;;5.75;97.93;99634.75;218287;1263;140636;-76
2024/03/12 23:20:31;;;;;;;54.80;27.30;;;;;;;5.76;97.72;99636.73;217815;1263;140620;-75
2024/03/12 23:25:38;;;;;;;55.90;28.00;;;;;;;5.74;97.72;99638.49;218232;1259;139744;-77